Sunday, April 20, 2014
18:25 UTC
  |  Log In   |  Register Free
Airport Search:

Talladega Municipal Airport
(KASN)

Talladega Municipal Airport Diagram
No Airport Diagram Available

FAA data valid effective April 3, 2014 until May 29, 2014 (unless otherwise noted).

 
 
 
 
 
 
 
 
 
 
 
 
 
 

Current Aviation Weather for Talladega Municipal Airport (KASN)

The most recent METAR observation for KANB was updated at: 1753 UTC
METAR Summary (Translated METAR)
KANB
201753Z AUTO 04008KT 10SM CLR 23/07 A3019 RMK AO2 SLP221 T02280072 10228 20100 58021
KGAD
(25.8 nm NW from KANB)
161355Z 10SM CLR RMK AO1
TAF Summary (Translated TAF)
KANB
201740Z 2018/2118 05005KT P6SM SKC
  Airport Weather Conditions for KASN

Current weather conditions are
not available for ASN


The nearest NOAA weather station
is at ANB, (9.7 nm NE from ASN)
  
 Current Weather at ANB
73° F
Fair
Northeast winds at 9.2 mph
ANB NOAA Radar

Pressure: 30.19 in
Humidity: 37%
Wind: Northeast at 9.2 MPH (8 KT)
Dew Point: 45.0°F
Visibility: 10.00 mi


Airport Weather Forecast for KASN

Translated METAR and TAF for KANB
Translated METAR for KANB (1825 UTC 20 April 2014)
found at http://aviationweather.gov/adds/metars/
 
METAR text: KANB 201753Z AUTO 04008KT 10SM CLR 23/07 A3019 RMK AO2 SLP221 T02280072 10228 20100 58021
Conditions at: KANB (ANNISTON , AL, US) observed 1753 UTC 20 April 2014
Temperature: 22.8°C (73°F)
Dewpoint: 7.2°C (45°F) [RH = 37%]
Pressure (altimeter): 30.19 inches Hg (1022.4 mb)
[Sea-level pressure: 1022.1 mb]
Winds: from the NE (40 degrees) at 9 MPH (8 knots; 4.2 m/s)
Visibility: 10 or more miles (16+ km)
Ceiling: at least 12,000 feet AGL
Clouds: sky clear below 12,000 feet AGL
Weather: automated observation with no human augmentation;
there may or may not be significant weather present at this time
Translated TAF for KANB
Forecast for: KANB (ANNISTON , AL, US)
TAF Text: KANB 201740Z 2018/2118 05005KT P6SM SKC
Forecast period: 1800 UTC 20 April 2014 to 1800 UTC 21 April 2014
Forecast type: FROM: standard forecast or significant change
Winds: from the NE (50 degrees) at 6 MPH (5 knots; 2.6 m/s)
Visibility: 6 or more miles (10+ km)
Clouds: clear skies
Weather: no significant weather forecast for this period

Find All Airport Services Find A Hotel Find A Rental Car Find A Golf Course Find A Restaurant $100 Hamburger



FBO's on the Field
FBO Company Facility Photos Services Transportation Aviation Fuel Prices: Prices include tax
Catering Weather Repair Courtesy Rental Type 100LL JetA JetA+ MOGAS 8087
 
Talladega Municipal

This FBO has not yet been rated
FS:Texaco
Last Updated: Mar-28
Login to update fuel prices
SS:
Contact Talladega MunicipalMore FBO Information
 
Add another FBO Facility Photos Catering Weather Repair Courtesy Rental Type 100LL JetA JetA+ MOGAS 8087
Services Transportation Aviation Fuel Prices: Prices include tax


GlobalAir.com Airport Resource Center model-print
model-print
model-print
model-print